sensor_id;sensor_type;location;lat;lon;timestamp;P1;durP1;ratioP1;P2;durP2;ratioP2
74344;SDS011;62776;50.518;6.732;2023-07-20T00:01:54;2.00;;;1.40;;
74344;SDS011;62776;50.518;6.732;2023-07-20T00:04:41;1.90;;;1.50;;
74344;SDS011;62776;50.518;6.732;2023-07-20T00:07:28;2.92;;;1.70;;
74344;SDS011;62776;50.518;6.732;2023-07-20T00:10:15;2.08;;;1.50;;
74344;SDS011;62776;50.518;6.732;2023-07-20T00:13:01;2.88;;;1.75;;
74344;SDS011;62776;50.518;6.732;2023-07-20T00:15:48;1.83;;;1.40;;
74344;SDS011;62776;50.518;6.732;2023-07-20T00:18:35;3.80;;;1.50;;
74344;SDS011;62776;50.518;6.732;2023-07-20T00:21:21;2.65;;;1.73;;
74344;SDS011;62776;50.518;6.732;2023-07-20T00:24:07;1.73;;;1.40;;
74344;SDS011;62776;50.518;6.732;2023-07-20T00:26:55;2.60;;;1.90;;
74344;SDS011;62776;50.518;6.732;2023-07-20T00:29:43;3.28;;;2.00;;
74344;SDS011;62776;50.518;6.732;2023-07-20T00:32:33;2.92;;;1.77;;
74344;SDS011;62776;50.518;6.732;2023-07-20T00:35:21;3.25;;;1.85;;
74344;SDS011;62776;50.518;6.732;2023-07-20T00:38:08;2.92;;;1.73;;
74344;SDS011;62776;50.518;6.732;2023-07-20T00:40:56;2.15;;;1.70;;
74344;SDS011;62776;50.518;6.732;2023-07-20T00:43:43;2.90;;;1.52;;
74344;SDS011;62776;50.518;6.732;2023-07-20T00:46:40;1.77;;;1.55;;
74344;SDS011;62776;50.518;6.732;2023-07-20T00:49:27;2.85;;;1.60;;
74344;SDS011;62776;50.518;6.732;2023-07-20T00:52:14;2.13;;;1.58;;
74344;SDS011;62776;50.518;6.732;2023-07-20T00:55:03;3.75;;;1.73;;
74344;SDS011;62776;50.518;6.732;2023-07-20T00:57:49;2.40;;;1.60;;
74344;SDS011;62776;50.518;6.732;2023-07-20T01:00:41;3.53;;;1.88;;
74344;SDS011;62776;50.518;6.732;2023-07-20T01:03:35;1.95;;;1.50;;
74344;SDS011;62776;50.518;6.732;2023-07-20T01:09:52;2.90;;;1.70;;
74344;SDS011;62776;50.518;6.732;2023-07-20T01:12:47;4.38;;;1.73;;
74344;SDS011;62776;50.518;6.732;2023-07-20T01:15:36;2.40;;;1.63;;
74344;SDS011;62776;50.518;6.732;2023-07-20T01:18:25;3.30;;;1.55;;
74344;SDS011;62776;50.518;6.732;2023-07-20T01:21:13;5.45;;;1.75;;
74344;SDS011;62776;50.518;6.732;2023-07-20T01:33:50;1.75;;;1.60;;
74344;SDS011;62776;50.518;6.732;2023-07-20T01:36:41;2.10;;;1.50;;
74344;SDS011;62776;50.518;6.732;2023-07-20T01:39:30;2.47;;;2.00;;
74344;SDS011;62776;50.518;6.732;2023-07-20T01:42:17;2.60;;;1.85;;
74344;SDS011;62776;50.518;6.732;2023-07-20T01:45:04;3.47;;;1.65;;
74344;SDS011;62776;50.518;6.732;2023-07-20T01:47:58;2.33;;;1.80;;
74344;SDS011;62776;50.518;6.732;2023-07-20T01:51:01;1.58;;;1.48;;
74344;SDS011;62776;50.518;6.732;2023-07-20T01:53:53;2.53;;;2.10;;
74344;SDS011;62776;50.518;6.732;2023-07-20T01:56:40;4.03;;;1.80;;
74344;SDS011;62776;50.518;6.732;2023-07-20T01:59:26;3.88;;;1.88;;
74344;SDS011;62776;50.518;6.732;2023-07-20T02:02:13;2.17;;;1.30;;
74344;SDS011;62776;50.518;6.732;2023-07-20T02:05:00;2.10;;;1.58;;
74344;SDS011;62776;50.518;6.732;2023-07-20T02:07:48;2.03;;;1.58;;
74344;SDS011;62776;50.518;6.732;2023-07-20T02:10:35;2.65;;;1.60;;
74344;SDS011;62776;50.518;6.732;2023-07-20T02:13:24;4.03;;;2.15;;
74344;SDS011;62776;50.518;6.732;2023-07-20T02:16:10;2.90;;;1.80;;
74344;SDS011;62776;50.518;6.732;2023-07-20T02:18:56;2.55;;;1.98;;
74344;SDS011;62776;50.518;6.732;2023-07-20T02:21:43;2.50;;;1.85;;
74344;SDS011;62776;50.518;6.732;2023-07-20T02:24:29;4.90;;;2.30;;
74344;SDS011;62776;50.518;6.732;2023-07-20T02:27:16;2.85;;;2.10;;
74344;SDS011;62776;50.518;6.732;2023-07-20T02:30:03;2.13;;;1.80;;
74344;SDS011;62776;50.518;6.732;2023-07-20T02:32:51;2.40;;;1.38;;
74344;SDS011;62776;50.518;6.732;2023-07-20T02:35:43;2.38;;;1.70;;
74344;SDS011;62776;50.518;6.732;2023-07-20T02:38:29;4.00;;;1.90;;
74344;SDS011;62776;50.518;6.732;2023-07-20T02:41:16;4.60;;;2.20;;
74344;SDS011;62776;50.518;6.732;2023-07-20T02:44:02;2.20;;;1.80;;
74344;SDS011;62776;50.518;6.732;2023-07-20T02:46:49;2.28;;;1.90;;
74344;SDS011;62776;50.518;6.732;2023-07-20T02:49:35;3.30;;;2.45;;
74344;SDS011;62776;50.518;6.732;2023-07-20T02:52:21;3.67;;;2.47;;
74344;SDS011;62776;50.518;6.732;2023-07-20T02:55:08;1.98;;;1.80;;
74344;SDS011;62776;50.518;6.732;2023-07-20T02:57:56;3.42;;;2.40;;
74344;SDS011;62776;50.518;6.732;2023-07-20T03:00:42;4.22;;;2.00;;
74344;SDS011;62776;50.518;6.732;2023-07-20T03:03:29;4.03;;;2.17;;
74344;SDS011;62776;50.518;6.732;2023-07-20T03:06:17;4.63;;;2.10;;
74344;SDS011;62776;50.518;6.732;2023-07-20T03:09:05;2.70;;;2.25;;
74344;SDS011;62776;50.518;6.732;2023-07-20T03:11:51;3.20;;;2.63;;
74344;SDS011;62776;50.518;6.732;2023-07-20T03:14:40;5.05;;;2.33;;
74344;SDS011;62776;50.518;6.732;2023-07-20T03:17:27;2.22;;;1.80;;
74344;SDS011;62776;50.518;6.732;2023-07-20T03:20:13;3.10;;;2.33;;
74344;SDS011;62776;50.518;6.732;2023-07-20T03:22:59;2.13;;;1.92;;
74344;SDS011;62776;50.518;6.732;2023-07-20T03:25:47;3.00;;;2.58;;
74344;SDS011;62776;50.518;6.732;2023-07-20T03:28:34;2.80;;;1.80;;
74344;SDS011;62776;50.518;6.732;2023-07-20T03:31:21;2.53;;;2.20;;
74344;SDS011;62776;50.518;6.732;2023-07-20T03:34:07;5.00;;;2.40;;
74344;SDS011;62776;50.518;6.732;2023-07-20T03:36:55;2.53;;;2.08;;
74344;SDS011;62776;50.518;6.732;2023-07-20T03:39:42;4.18;;;2.45;;
74344;SDS011;62776;50.518;6.732;2023-07-20T03:42:28;3.20;;;2.08;;
74344;SDS011;62776;50.518;6.732;2023-07-20T03:45:15;3.47;;;2.13;;
74344;SDS011;62776;50.518;6.732;2023-07-20T03:48:07;3.08;;;2.40;;
74344;SDS011;62776;50.518;6.732;2023-07-20T03:50:54;6.10;;;2.92;;
74344;SDS011;62776;50.518;6.732;2023-07-20T03:53:41;5.38;;;2.60;;
74344;SDS011;62776;50.518;6.732;2023-07-20T03:56:32;3.70;;;2.13;;
74344;SDS011;62776;50.518;6.732;2023-07-20T03:59:20;2.55;;;1.73;;
74344;SDS011;62776;50.518;6.732;2023-07-20T04:02:10;4.10;;;3.70;;
74344;SDS011;62776;50.518;6.732;2023-07-20T04:05:00;3.88;;;2.90;;
74344;SDS011;62776;50.518;6.732;2023-07-20T04:07:47;3.78;;;2.30;;
74344;SDS011;62776;50.518;6.732;2023-07-20T04:10:34;4.43;;;3.13;;
74344;SDS011;62776;50.518;6.732;2023-07-20T04:13:29;3.13;;;2.63;;
74344;SDS011;62776;50.518;6.732;2023-07-20T04:16:20;4.22;;;2.58;;
74344;SDS011;62776;50.518;6.732;2023-07-20T04:19:09;5.20;;;2.65;;
74344;SDS011;62776;50.518;6.732;2023-07-20T04:22:01;3.00;;;2.70;;
74344;SDS011;62776;50.518;6.732;2023-07-20T04:24:53;4.57;;;2.50;;
74344;SDS011;62776;50.518;6.732;2023-07-20T04:27:39;4.47;;;3.00;;
74344;SDS011;62776;50.518;6.732;2023-07-20T04:30:29;4.60;;;2.90;;
74344;SDS011;62776;50.518;6.732;2023-07-20T04:33:25;2.85;;;2.58;;
74344;SDS011;62776;50.518;6.732;2023-07-20T04:36:16;3.90;;;2.92;;
74344;SDS011;62776;50.518;6.732;2023-07-20T04:39:04;3.40;;;2.65;;
74344;SDS011;62776;50.518;6.732;2023-07-20T04:41:56;3.25;;;2.92;;
74344;SDS011;62776;50.518;6.732;2023-07-20T04:44:43;5.45;;;3.03;;
74344;SDS011;62776;50.518;6.732;2023-07-20T04:47:29;3.85;;;3.20;;
74344;SDS011;62776;50.518;6.732;2023-07-20T04:50:15;3.08;;;2.55;;
74344;SDS011;62776;50.518;6.732;2023-07-20T04:53:02;5.45;;;3.20;;
74344;SDS011;62776;50.518;6.732;2023-07-20T04:55:50;3.85;;;2.80;;
74344;SDS011;62776;50.518;6.732;2023-07-20T04:58:37;4.65;;;3.20;;
74344;SDS011;62776;50.518;6.732;2023-07-20T05:01:23;3.80;;;2.97;;
74344;SDS011;62776;50.518;6.732;2023-07-20T05:04:09;3.10;;;2.80;;
74344;SDS011;62776;50.518;6.732;2023-07-20T05:06:58;4.95;;;3.63;;
74344;SDS011;62776;50.518;6.732;2023-07-20T05:09:44;4.40;;;3.70;;
74344;SDS011;62776;50.518;6.732;2023-07-20T05:12:30;3.45;;;3.15;;
74344;SDS011;62776;50.518;6.732;2023-07-20T05:15:16;3.80;;;3.50;;
74344;SDS011;62776;50.518;6.732;2023-07-20T05:18:02;5.80;;;4.63;;
74344;SDS011;62776;50.518;6.732;2023-07-20T05:20:49;3.70;;;3.33;;
74344;SDS011;62776;50.518;6.732;2023-07-20T05:23:49;4.78;;;4.35;;
74344;SDS011;62776;50.518;6.732;2023-07-20T05:26:36;6.25;;;4.63;;
74344;SDS011;62776;50.518;6.732;2023-07-20T05:29:29;7.75;;;4.53;;
74344;SDS011;62776;50.518;6.732;2023-07-20T05:32:24;5.00;;;4.30;;
74344;SDS011;62776;50.518;6.732;2023-07-20T05:35:11;4.20;;;3.10;;
74344;SDS011;62776;50.518;6.732;2023-07-20T05:37:57;6.28;;;5.40;;
74344;SDS011;62776;50.518;6.732;2023-07-20T05:40:44;6.03;;;5.00;;
74344;SDS011;62776;50.518;6.732;2023-07-20T05:43:33;5.32;;;4.82;;
74344;SDS011;62776;50.518;6.732;2023-07-20T05:46:20;4.28;;;3.78;;
74344;SDS011;62776;50.518;6.732;2023-07-20T05:49:13;5.18;;;4.30;;
74344;SDS011;62776;50.518;6.732;2023-07-20T05:52:00;5.03;;;4.15;;
74344;SDS011;62776;50.518;6.732;2023-07-20T05:54:48;4.65;;;3.42;;
74344;SDS011;62776;50.518;6.732;2023-07-20T05:57:34;4.85;;;4.20;;
74344;SDS011;62776;50.518;6.732;2023-07-20T06:00:21;3.97;;;3.58;;
74344;SDS011;62776;50.518;6.732;2023-07-20T06:03:11;3.22;;;2.92;;
74344;SDS011;62776;50.518;6.732;2023-07-20T06:06:00;5.68;;;3.38;;
74344;SDS011;62776;50.518;6.732;2023-07-20T06:08:47;3.72;;;3.30;;
74344;SDS011;62776;50.518;6.732;2023-07-20T06:11:34;5.15;;;2.95;;
74344;SDS011;62776;50.518;6.732;2023-07-20T06:14:21;3.13;;;2.45;;
74344;SDS011;62776;50.518;6.732;2023-07-20T06:17:21;3.70;;;2.65;;
74344;SDS011;62776;50.518;6.732;2023-07-20T06:20:08;5.20;;;2.65;;
74344;SDS011;62776;50.518;6.732;2023-07-20T06:22:55;3.42;;;2.38;;
74344;SDS011;62776;50.518;6.732;2023-07-20T06:25:41;3.47;;;2.38;;
74344;SDS011;62776;50.518;6.732;2023-07-20T06:28:27;3.40;;;2.28;;
74344;SDS011;62776;50.518;6.732;2023-07-20T06:31:16;2.00;;;1.80;;
74344;SDS011;62776;50.518;6.732;2023-07-20T06:34:05;2.00;;;1.83;;
74344;SDS011;62776;50.518;6.732;2023-07-20T06:36:52;2.63;;;2.33;;
74344;SDS011;62776;50.518;6.732;2023-07-20T06:39:39;2.13;;;1.88;;
74344;SDS011;62776;50.518;6.732;2023-07-20T06:42:25;2.83;;;1.92;;
74344;SDS011;62776;50.518;6.732;2023-07-20T06:45:11;3.28;;;2.08;;
74344;SDS011;62776;50.518;6.732;2023-07-20T06:47:58;2.72;;;2.03;;
74344;SDS011;62776;50.518;6.732;2023-07-20T06:50:55;3.40;;;1.80;;
74344;SDS011;62776;50.518;6.732;2023-07-20T06:53:48;2.53;;;2.33;;
74344;SDS011;62776;50.518;6.732;2023-07-20T06:56:42;1.92;;;1.67;;
74344;SDS011;62776;50.518;6.732;2023-07-20T06:59:29;2.67;;;2.10;;
74344;SDS011;62776;50.518;6.732;2023-07-20T07:02:16;3.47;;;2.10;;
74344;SDS011;62776;50.518;6.732;2023-07-20T07:05:03;2.65;;;1.63;;
74344;SDS011;62776;50.518;6.732;2023-07-20T07:07:51;2.92;;;1.98;;
74344;SDS011;62776;50.518;6.732;2023-07-20T07:10:37;2.30;;;2.00;;
74344;SDS011;62776;50.518;6.732;2023-07-20T07:13:25;2.35;;;2.00;;
74344;SDS011;62776;50.518;6.732;2023-07-20T07:16:19;2.58;;;2.10;;
74344;SDS011;62776;50.518;6.732;2023-07-20T07:19:06;2.42;;;2.00;;
74344;SDS011;62776;50.518;6.732;2023-07-20T07:21:53;2.58;;;1.92;;
74344;SDS011;62776;50.518;6.732;2023-07-20T07:24:54;2.63;;;1.90;;
74344;SDS011;62776;50.518;6.732;2023-07-20T07:27:41;3.03;;;1.98;;
74344;SDS011;62776;50.518;6.732;2023-07-20T07:30:27;1.73;;;1.35;;
74344;SDS011;62776;50.518;6.732;2023-07-20T07:33:15;2.28;;;1.42;;
74344;SDS011;62776;50.518;6.732;2023-07-20T07:36:01;2.17;;;1.40;;
74344;SDS011;62776;50.518;6.732;2023-07-20T07:38:57;1.13;;;1.00;;
74344;SDS011;62776;50.518;6.732;2023-07-20T07:41:46;2.33;;;1.17;;
74344;SDS011;62776;50.518;6.732;2023-07-20T07:44:32;1.92;;;1.08;;
74344;SDS011;62776;50.518;6.732;2023-07-20T07:47:21;1.95;;;1.10;;
74344;SDS011;62776;50.518;6.732;2023-07-20T07:50:18;1.65;;;1.00;;
74344;SDS011;62776;50.518;6.732;2023-07-20T07:53:04;1.40;;;1.27;;
74344;SDS011;62776;50.518;6.732;2023-07-20T07:55:52;1.23;;;1.13;;
74344;SDS011;62776;50.518;6.732;2023-07-20T07:58:38;1.45;;;1.05;;
74344;SDS011;62776;50.518;6.732;2023-07-20T08:01:31;1.95;;;1.30;;
74344;SDS011;62776;50.518;6.732;2023-07-20T08:04:18;2.20;;;1.15;;
74344;SDS011;62776;50.518;6.732;2023-07-20T08:07:07;1.80;;;1.00;;
74344;SDS011;62776;50.518;6.732;2023-07-20T08:09:54;2.20;;;1.00;;
74344;SDS011;62776;50.518;6.732;2023-07-20T08:12:53;3.08;;;1.25;;
74344;SDS011;62776;50.518;6.732;2023-07-20T08:15:41;0.77;;;0.77;;
74344;SDS011;62776;50.518;6.732;2023-07-20T08:18:39;1.05;;;0.90;;
74344;SDS011;62776;50.518;6.732;2023-07-20T08:21:26;0.90;;;0.90;;
74344;SDS011;62776;50.518;6.732;2023-07-20T08:24:12;3.17;;;1.15;;
74344;SDS011;62776;50.518;6.732;2023-07-20T08:26:59;1.30;;;1.20;;
74344;SDS011;62776;50.518;6.732;2023-07-20T08:29:48;2.08;;;1.00;;
74344;SDS011;62776;50.518;6.732;2023-07-20T08:32:36;1.10;;;0.93;;
74344;SDS011;62776;50.518;6.732;2023-07-20T08:35:22;2.15;;;1.40;;
74344;SDS011;62776;50.518;6.732;2023-07-20T08:38:08;1.92;;;1.25;;
74344;SDS011;62776;50.518;6.732;2023-07-20T08:40:56;1.50;;;1.00;;
74344;SDS011;62776;50.518;6.732;2023-07-20T08:43:46;1.42;;;1.23;;
74344;SDS011;62776;50.518;6.732;2023-07-20T08:46:35;2.00;;;1.10;;
74344;SDS011;62776;50.518;6.732;2023-07-20T08:49:24;1.05;;;0.90;;
74344;SDS011;62776;50.518;6.732;2023-07-20T08:52:12;1.40;;;1.30;;
74344;SDS011;62776;50.518;6.732;2023-07-20T08:54:59;1.27;;;0.90;;
74344;SDS011;62776;50.518;6.732;2023-07-20T08:57:54;1.52;;;1.02;;
74344;SDS011;62776;50.518;6.732;2023-07-20T09:00:52;1.23;;;1.13;;
74344;SDS011;62776;50.518;6.732;2023-07-20T09:03:51;1.90;;;1.10;;
74344;SDS011;62776;50.518;6.732;2023-07-20T09:06:46;1.83;;;1.10;;
74344;SDS011;62776;50.518;6.732;2023-07-20T09:09:39;1.52;;;1.10;;
74344;SDS011;62776;50.518;6.732;2023-07-20T09:12:26;3.33;;;1.30;;
74344;SDS011;62776;50.518;6.732;2023-07-20T09:15:13;0.75;;;0.75;;
74344;SDS011;62776;50.518;6.732;2023-07-20T09:18:07;0.82;;;0.82;;
74344;SDS011;62776;50.518;6.732;2023-07-20T09:21:00;1.58;;;1.20;;
74344;SDS011;62776;50.518;6.732;2023-07-20T09:23:52;2.08;;;1.17;;
74344;SDS011;62776;50.518;6.732;2023-07-20T09:26:49;3.40;;;1.00;;
74344;SDS011;62776;50.518;6.732;2023-07-20T09:29:50;1.20;;;0.90;;
74344;SDS011;62776;50.518;6.732;2023-07-20T09:32:58;2.33;;;1.00;;
74344;SDS011;62776;50.518;6.732;2023-07-20T09:35:45;2.22;;;1.25;;
74344;SDS011;62776;50.518;6.732;2023-07-20T09:38:31;1.77;;;1.10;;
74344;SDS011;62776;50.518;6.732;2023-07-20T09:41:21;1.30;;;1.15;;
74344;SDS011;62776;50.518;6.732;2023-07-20T09:44:07;1.38;;;0.95;;
74344;SDS011;62776;50.518;6.732;2023-07-20T09:46:55;1.70;;;1.20;;
74344;SDS011;62776;50.518;6.732;2023-07-20T09:49:42;1.40;;;1.02;;
74344;SDS011;62776;50.518;6.732;2023-07-20T09:52:29;0.90;;;0.90;;
74344;SDS011;62776;50.518;6.732;2023-07-20T09:55:16;1.13;;;0.95;;
74344;SDS011;62776;50.518;6.732;2023-07-20T09:58:06;2.53;;;1.17;;
74344;SDS011;62776;50.518;6.732;2023-07-20T10:01:07;0.90;;;0.90;;
74344;SDS011;62776;50.518;6.732;2023-07-20T10:03:58;1.65;;;1.13;;
74344;SDS011;62776;50.518;6.732;2023-07-20T10:06:55;1.58;;;1.05;;
74344;SDS011;62776;50.518;6.732;2023-07-20T10:09:49;2.17;;;1.17;;
74344;SDS011;62776;50.518;6.732;2023-07-20T10:12:39;2.38;;;1.52;;
74344;SDS011;62776;50.518;6.732;2023-07-20T10:15:50;0.98;;;0.90;;
74344;SDS011;62776;50.518;6.732;2023-07-20T10:19:02;1.43;;;1.00;;
74344;SDS011;62776;50.518;6.732;2023-07-20T10:22:07;0.93;;;0.90;;
74344;SDS011;62776;50.518;6.732;2023-07-20T10:25:01;0.98;;;0.90;;
74344;SDS011;62776;50.518;6.732;2023-07-20T10:27:58;1.05;;;0.95;;
74344;SDS011;62776;50.518;6.732;2023-07-20T10:30:52;3.88;;;0.80;;
74344;SDS011;62776;50.518;6.732;2023-07-20T10:33:39;2.25;;;0.90;;
74344;SDS011;62776;50.518;6.732;2023-07-20T10:36:27;0.80;;;0.80;;
74344;SDS011;62776;50.518;6.732;2023-07-20T10:39:32;1.13;;;1.00;;
74344;SDS011;62776;50.518;6.732;2023-07-20T10:42:22;1.45;;;0.88;;
74344;SDS011;62776;50.518;6.732;2023-07-20T10:45:20;2.80;;;1.88;;
74344;SDS011;62776;50.518;6.732;2023-07-20T10:48:12;0.88;;;0.80;;
74344;SDS011;62776;50.518;6.732;2023-07-20T10:51:25;1.92;;;1.02;;
74344;SDS011;62776;50.518;6.732;2023-07-20T10:57:30;0.75;;;0.75;;
74344;SDS011;62776;50.518;6.732;2023-07-20T11:00:20;1.02;;;0.90;;
74344;SDS011;62776;50.518;6.732;2023-07-20T11:03:33;1.00;;;0.90;;
74344;SDS011;62776;50.518;6.732;2023-07-20T11:09:21;0.80;;;0.80;;
74344;SDS011;62776;50.518;6.732;2023-07-20T11:12:18;1.02;;;0.88;;
74344;SDS011;62776;50.518;6.732;2023-07-20T11:15:06;2.35;;;1.30;;
74344;SDS011;62776;50.518;6.732;2023-07-20T11:18:10;2.60;;;1.10;;
74344;SDS011;62776;50.518;6.732;2023-07-20T11:20:57;1.90;;;1.17;;
74344;SDS011;62776;50.518;6.732;2023-07-20T11:23:44;0.85;;;0.80;;
74344;SDS011;62776;50.518;6.732;2023-07-20T11:26:41;3.00;;;1.00;;
74344;SDS011;62776;50.518;6.732;2023-07-20T11:29:34;1.33;;;0.90;;
74344;SDS011;62776;50.518;6.732;2023-07-20T11:32:24;1.00;;;1.00;;
74344;SDS011;62776;50.518;6.732;2023-07-20T11:35:13;1.60;;;0.98;;
74344;SDS011;62776;50.518;6.732;2023-07-20T11:37:59;0.73;;;0.68;;
74344;SDS011;62776;50.518;6.732;2023-07-20T11:40:47;1.73;;;1.02;;
74344;SDS011;62776;50.518;6.732;2023-07-20T11:43:33;1.23;;;1.00;;
74344;SDS011;62776;50.518;6.732;2023-07-20T11:46:19;0.77;;;0.77;;
74344;SDS011;62776;50.518;6.732;2023-07-20T11:49:12;1.95;;;1.30;;
74344;SDS011;62776;50.518;6.732;2023-07-20T11:51:59;1.52;;;0.80;;
74344;SDS011;62776;50.518;6.732;2023-07-20T11:54:46;0.90;;;0.80;;
74344;SDS011;62776;50.518;6.732;2023-07-20T11:57:34;1.38;;;0.85;;
74344;SDS011;62776;50.518;6.732;2023-07-20T12:00:24;1.10;;;0.70;;
74344;SDS011;62776;50.518;6.732;2023-07-20T12:03:11;0.63;;;0.63;;
74344;SDS011;62776;50.518;6.732;2023-07-20T12:06:06;1.10;;;1.00;;
74344;SDS011;62776;50.518;6.732;2023-07-20T12:08:58;0.95;;;0.82;;
74344;SDS011;62776;50.518;6.732;2023-07-20T12:11:48;0.77;;;0.75;;
74344;SDS011;62776;50.518;6.732;2023-07-20T12:14:37;0.73;;;0.68;;
74344;SDS011;62776;50.518;6.732;2023-07-20T12:17:24;1.20;;;0.90;;
74344;SDS011;62776;50.518;6.732;2023-07-20T12:20:11;0.57;;;0.57;;
74344;SDS011;62776;50.518;6.732;2023-07-20T12:23:18;1.13;;;0.80;;
74344;SDS011;62776;50.518;6.732;2023-07-20T12:26:07;0.80;;;0.75;;
74344;SDS011;62776;50.518;6.732;2023-07-20T12:29:01;1.38;;;1.00;;
74344;SDS011;62776;50.518;6.732;2023-07-20T12:31:53;0.80;;;0.80;;
74344;SDS011;62776;50.518;6.732;2023-07-20T12:34:39;1.20;;;0.90;;
74344;SDS011;62776;50.518;6.732;2023-07-20T12:37:28;2.17;;;0.80;;
74344;SDS011;62776;50.518;6.732;2023-07-20T12:40:15;0.90;;;0.90;;
74344;SDS011;62776;50.518;6.732;2023-07-20T12:43:14;1.00;;;0.73;;
74344;SDS011;62776;50.518;6.732;2023-07-20T12:46:09;1.95;;;0.80;;
74344;SDS011;62776;50.518;6.732;2023-07-20T12:48:58;2.42;;;1.00;;
74344;SDS011;62776;50.518;6.732;2023-07-20T12:51:45;0.80;;;0.80;;
74344;SDS011;62776;50.518;6.732;2023-07-20T12:54:34;0.77;;;0.70;;
74344;SDS011;62776;50.518;6.732;2023-07-20T12:57:26;0.70;;;0.60;;
74344;SDS011;62776;50.518;6.732;2023-07-20T13:00:15;0.80;;;0.80;;
74344;SDS011;62776;50.518;6.732;2023-07-20T13:03:04;1.33;;;0.90;;
74344;SDS011;62776;50.518;6.732;2023-07-20T13:05:51;0.88;;;0.70;;
74344;SDS011;62776;50.518;6.732;2023-07-20T13:08:38;1.50;;;1.00;;
74344;SDS011;62776;50.518;6.732;2023-07-20T13:11:30;0.88;;;0.88;;
74344;SDS011;62776;50.518;6.732;2023-07-20T13:14:16;0.73;;;0.70;;
74344;SDS011;62776;50.518;6.732;2023-07-20T13:17:02;2.05;;;0.77;;
74344;SDS011;62776;50.518;6.732;2023-07-20T13:19:49;1.77;;;0.70;;
74344;SDS011;62776;50.518;6.732;2023-07-20T13:22:39;0.80;;;0.80;;
74344;SDS011;62776;50.518;6.732;2023-07-20T13:25:37;1.00;;;0.90;;
74344;SDS011;62776;50.518;6.732;2023-07-20T13:28:23;0.55;;;0.55;;
74344;SDS011;62776;50.518;6.732;2023-07-20T13:31:09;0.82;;;0.82;;
74344;SDS011;62776;50.518;6.732;2023-07-20T13:33:57;0.80;;;0.80;;
74344;SDS011;62776;50.518;6.732;2023-07-20T13:36:49;0.95;;;0.73;;
74344;SDS011;62776;50.518;6.732;2023-07-20T13:42:31;0.85;;;0.85;;
74344;SDS011;62776;50.518;6.732;2023-07-20T13:45:20;1.15;;;0.80;;
74344;SDS011;62776;50.518;6.732;2023-07-20T13:48:13;1.15;;;0.63;;
74344;SDS011;62776;50.518;6.732;2023-07-20T13:51:00;0.70;;;0.70;;
74344;SDS011;62776;50.518;6.732;2023-07-20T13:53:47;0.70;;;0.70;;
74344;SDS011;62776;50.518;6.732;2023-07-20T13:56:34;0.60;;;0.60;;
74344;SDS011;62776;50.518;6.732;2023-07-20T13:59:23;0.70;;;0.70;;
74344;SDS011;62776;50.518;6.732;2023-07-20T14:02:11;1.20;;;0.88;;
74344;SDS011;62776;50.518;6.732;2023-07-20T14:05:05;0.80;;;0.80;;
74344;SDS011;62776;50.518;6.732;2023-07-20T14:07:54;1.90;;;0.82;;
74344;SDS011;62776;50.518;6.732;2023-07-20T14:10:42;3.03;;;0.80;;
74344;SDS011;62776;50.518;6.732;2023-07-20T14:13:31;2.47;;;1.00;;
74344;SDS011;62776;50.518;6.732;2023-07-20T14:16:21;1.75;;;0.82;;
74344;SDS011;62776;50.518;6.732;2023-07-20T14:19:09;0.60;;;0.50;;
74344;SDS011;62776;50.518;6.732;2023-07-20T14:22:05;0.70;;;0.70;;
74344;SDS011;62776;50.518;6.732;2023-07-20T14:24:53;2.03;;;0.82;;
74344;SDS011;62776;50.518;6.732;2023-07-20T14:27:52;0.70;;;0.70;;
74344;SDS011;62776;50.518;6.732;2023-07-20T14:30:39;0.60;;;0.60;;
74344;SDS011;62776;50.518;6.732;2023-07-20T14:33:35;0.57;;;0.57;;
74344;SDS011;62776;50.518;6.732;2023-07-20T14:36:23;2.17;;;0.60;;
74344;SDS011;62776;50.518;6.732;2023-07-20T14:39:10;2.80;;;0.63;;
74344;SDS011;62776;50.518;6.732;2023-07-20T14:41:56;1.35;;;0.93;;
74344;SDS011;62776;50.518;6.732;2023-07-20T14:44:43;0.68;;;0.68;;
74344;SDS011;62776;50.518;6.732;2023-07-20T14:47:36;0.70;;;0.70;;
74344;SDS011;62776;50.518;6.732;2023-07-20T14:50:45;1.33;;;0.98;;
74344;SDS011;62776;50.518;6.732;2023-07-20T14:53:33;0.77;;;0.75;;
74344;SDS011;62776;50.518;6.732;2023-07-20T14:56:33;1.50;;;0.80;;
74344;SDS011;62776;50.518;6.732;2023-07-20T14:59:19;0.68;;;0.63;;
74344;SDS011;62776;50.518;6.732;2023-07-20T15:02:07;1.25;;;0.80;;
74344;SDS011;62776;50.518;6.732;2023-07-20T15:04:56;0.80;;;0.80;;
74344;SDS011;62776;50.518;6.732;2023-07-20T15:07:42;0.85;;;0.70;;
74344;SDS011;62776;50.518;6.732;2023-07-20T15:10:35;0.82;;;0.70;;
74344;SDS011;62776;50.518;6.732;2023-07-20T15:13:27;1.30;;;0.70;;
74344;SDS011;62776;50.518;6.732;2023-07-20T15:16:15;1.42;;;0.77;;
74344;SDS011;62776;50.518;6.732;2023-07-20T15:19:04;0.73;;;0.65;;
74344;SDS011;62776;50.518;6.732;2023-07-20T15:21:58;1.05;;;0.73;;
74344;SDS011;62776;50.518;6.732;2023-07-20T15:24:45;1.23;;;0.63;;
74344;SDS011;62776;50.518;6.732;2023-07-20T15:27:31;0.73;;;0.50;;
74344;SDS011;62776;50.518;6.732;2023-07-20T15:30:19;0.57;;;0.57;;
74344;SDS011;62776;50.518;6.732;2023-07-20T15:33:07;1.02;;;0.60;;
74344;SDS011;62776;50.518;6.732;2023-07-20T15:35:54;0.50;;;0.50;;
74344;SDS011;62776;50.518;6.732;2023-07-20T15:38:44;1.98;;;0.63;;
74344;SDS011;62776;50.518;6.732;2023-07-20T15:41:31;0.88;;;0.60;;
74344;SDS011;62776;50.518;6.732;2023-07-20T15:44:17;0.68;;;0.60;;
74344;SDS011;62776;50.518;6.732;2023-07-20T15:47:03;2.42;;;0.68;;
74344;SDS011;62776;50.518;6.732;2023-07-20T15:50:09;0.60;;;0.50;;
74344;SDS011;62776;50.518;6.732;2023-07-20T15:52:55;5.00;;;0.70;;
74344;SDS011;62776;50.518;6.732;2023-07-20T15:55:54;0.70;;;0.50;;
74344;SDS011;62776;50.518;6.732;2023-07-20T15:58:41;0.77;;;0.60;;
74344;SDS011;62776;50.518;6.732;2023-07-20T16:01:34;1.13;;;0.70;;
74344;SDS011;62776;50.518;6.732;2023-07-20T16:04:26;0.77;;;0.77;;
74344;SDS011;62776;50.518;6.732;2023-07-20T16:07:12;2.22;;;0.68;;
74344;SDS011;62776;50.518;6.732;2023-07-20T16:09:59;0.57;;;0.57;;
74344;SDS011;62776;50.518;6.732;2023-07-20T16:12:51;1.17;;;0.80;;
74344;SDS011;62776;50.518;6.732;2023-07-20T16:15:37;2.67;;;0.80;;
74344;SDS011;62776;50.518;6.732;2023-07-20T16:18:24;1.25;;;0.93;;
74344;SDS011;62776;50.518;6.732;2023-07-20T16:21:17;1.05;;;0.60;;
74344;SDS011;62776;50.518;6.732;2023-07-20T16:24:04;0.63;;;0.50;;
74344;SDS011;62776;50.518;6.732;2023-07-20T16:26:51;0.63;;;0.63;;
74344;SDS011;62776;50.518;6.732;2023-07-20T16:29:39;4.35;;;0.70;;
74344;SDS011;62776;50.518;6.732;2023-07-20T16:32:25;0.60;;;0.60;;
74344;SDS011;62776;50.518;6.732;2023-07-20T16:35:13;0.70;;;0.70;;
74344;SDS011;62776;50.518;6.732;2023-07-20T16:38:00;1.25;;;0.60;;
74344;SDS011;62776;50.518;6.732;2023-07-20T16:40:47;1.02;;;0.57;;
74344;SDS011;62776;50.518;6.732;2023-07-20T16:43:36;0.80;;;0.70;;
74344;SDS011;62776;50.518;6.732;2023-07-20T16:46:23;0.95;;;0.60;;
74344;SDS011;62776;50.518;6.732;2023-07-20T16:49:10;0.60;;;0.60;;
74344;SDS011;62776;50.518;6.732;2023-07-20T16:52:03;1.42;;;0.75;;
74344;SDS011;62776;50.518;6.732;2023-07-20T16:54:50;0.90;;;0.73;;
74344;SDS011;62776;50.518;6.732;2023-07-20T16:57:40;0.93;;;0.60;;
74344;SDS011;62776;50.518;6.732;2023-07-20T17:00:27;0.65;;;0.60;;
74344;SDS011;62776;50.518;6.732;2023-07-20T17:03:19;1.98;;;0.77;;
74344;SDS011;62776;50.518;6.732;2023-07-20T17:06:06;1.85;;;0.80;;
74344;SDS011;62776;50.518;6.732;2023-07-20T17:08:55;3.55;;;1.05;;
74344;SDS011;62776;50.518;6.732;2023-07-20T17:11:47;1.17;;;0.80;;
74344;SDS011;62776;50.518;6.732;2023-07-20T17:14:34;3.80;;;0.90;;
74344;SDS011;62776;50.518;6.732;2023-07-20T17:17:29;0.85;;;0.75;;
74344;SDS011;62776;50.518;6.732;2023-07-20T17:20:15;2.15;;;1.10;;
74344;SDS011;62776;50.518;6.732;2023-07-20T17:23:03;10.00;;;1.60;;
74344;SDS011;62776;50.518;6.732;2023-07-20T17:25:51;9.60;;;1.35;;